KCLM

William R. Fairchild International Airport

Airport
ICAO code
KCLM
Summary
ICAO Region
NAM
ICAO Territory
Location

Port Angeles, Washington,

Coordinates
48° 6' 59" N , 123° 29' 36" W
KCC
Airport WX
Fog
Metar
Observation
KCLM 241534Z AUTO 00000KT 10SM BKN029 OVC035 13/10 A3027 RMK AO2 T01330100
Station
Port Angeles, William R. Fairchild International Airport
Date/Time
2022-09-24 15:34:00
Wind direction
Wind speed
00 kts
Lowest cloud amount
broken clouds
Temperature
13.3°C
Dew point
10°C
Humidity
80%
Weather condition
n/a

Description

William R. Fairchild International Airport is a public use airport located within the city limits of Port Angeles, in Clallam County, Washington.

Climatology

Temperate Marine climate/Oceanic climate (Köppen climate classification Cfb). Moderately cool summer and comparatively warm winter.

Airport map

Aerial View

SKYbrary Partners:

Safety knowledge contributed by: